Timestamp Temperature Pressure Humidity
2022-01-20 00:22:33 3.11 1029.76 87.24
2022-01-20 00:52:33 2.98 1030.1 86.98
2022-01-20 01:22:33 2.86 1030.45 86.63
2022-01-20 01:52:34 2.72 1030.81 86.41
2022-01-20 02:22:34 2.56 1031.16 86.13
2022-01-20 02:52:34 2.4 1031.49 86.09
2022-01-20 03:22:34 2.25 1031.82 86.21
2022-01-20 03:52:35 2.09 1032.14 86.23
2022-01-20 04:22:35 1.92 1032.46 85.94
2022-01-20 04:52:35 1.76 1032.78 85.81
2022-01-20 05:22:35 1.59 1033.1 85.62
2022-01-20 05:52:35 1.42 1033.41 85.99
2022-01-20 06:22:36 1.26 1033.73 85.49
2022-01-20 06:52:36 1.09 1034.05 85.55
2022-01-20 07:22:36 0.93 1034.39 85.73
2022-01-20 07:52:36 0.79 1034.73 86.03
2022-01-20 08:22:37 0.65 1035.07 86.57
2022-01-20 08:52:37 0.53 1035.38 86.83
2022-01-20 09:22:37 0.41 1035.68 86.83
2022-01-20 09:52:37 0.3 1035.98 87.1
2022-01-20 10:22:38 0.2 1036.26 87.38
2022-01-20 10:52:38 0.11 1036.54 87.71
2022-01-20 11:22:38 0.05 1036.81 88.39
2022-01-20 11:52:38 0.02 1037.06 88.72
2022-01-20 12:22:38 0.01 1037.31 88.57
2022-01-20 12:52:39 0.02 1037.53 88.71
2022-01-20 13:22:39 0.05 1037.74 88.59
2022-01-20 13:52:39 0.09 1037.92 88.65
2022-01-20 14:22:39 0.14 1038.07 88.67
2022-01-20 14:52:39 0.18 1038.22 88.54
2022-01-20 15:22:40 0.22 1038.36 89.14
2022-01-20 15:52:40 0.26 1038.48 89.13
2022-01-20 16:22:40 0.29 1038.59 89.09
2022-01-20 16:52:40 0.29 1038.7 89.17
2022-01-20 17:22:41 0.29 1038.81 89.46
2022-01-20 17:52:41 0.29 1038.95 89.63
2022-01-20 18:22:41 0.27 1039.09 89.62
2022-01-20 18:52:42 0.24 1039.21 89.68
2022-01-20 19:22:42 0.21 1039.34 89.72
2022-01-20 19:52:42 0.16 1039.47 89.68
2022-01-20 20:22:42 0.11 1039.57 89.54
2022-01-20 20:52:42 0.05 1039.67 89.61
2022-01-20 21:22:43 -0.01 1039.77 89.67
2022-01-20 21:52:43 -0.08 1039.86 89.54
2022-01-20 22:22:43 -0.15 1039.94 89.61
2022-01-20 22:52:43 -0.22 1040.02 89.44
2022-01-20 23:22:43 -0.29 1040.07 89.55
2022-01-20 23:52:44 -0.36 1040.12 89.98